sensor_id;sensor_type;location;lat;lon;timestamp;pressure;altitude;pressure_sealevel;temperature
65316;BMP280;51920;53.952;10.292;2023-04-03T00:01:18;102891.78;;;-0.32
65316;BMP280;51920;53.952;10.292;2023-04-03T00:03:47;102893.00;;;-0.34
65316;BMP280;51920;53.952;10.292;2023-04-03T00:06:14;102892.22;;;-0.35
65316;BMP280;51920;53.952;10.292;2023-04-03T00:08:41;102902.00;;;-0.41
65316;BMP280;51920;53.952;10.292;2023-04-03T00:11:09;102899.09;;;-0.39
65316;BMP280;51920;53.952;10.292;2023-04-03T00:13:36;102902.06;;;-0.52
65316;BMP280;51920;53.952;10.292;2023-04-03T00:16:08;102910.63;;;-0.50
65316;BMP280;51920;53.952;10.292;2023-04-03T00:18:38;102907.88;;;-0.55
65316;BMP280;51920;53.952;10.292;2023-04-03T00:21:06;102910.28;;;-0.54
65316;BMP280;51920;53.952;10.292;2023-04-03T00:23:39;102900.38;;;-0.59
65316;BMP280;51920;53.952;10.292;2023-04-03T00:26:12;102898.34;;;-0.68
65316;BMP280;51920;53.952;10.292;2023-04-03T00:28:39;102898.38;;;-0.51
65316;BMP280;51920;53.952;10.292;2023-04-03T00:31:06;102904.09;;;-0.60
65316;BMP280;51920;53.952;10.292;2023-04-03T00:33:34;102897.88;;;-0.65
65316;BMP280;51920;53.952;10.292;2023-04-03T00:36:06;102897.22;;;-0.72
65316;BMP280;51920;53.952;10.292;2023-04-03T00:38:33;102913.53;;;-0.69
65316;BMP280;51920;53.952;10.292;2023-04-03T00:40:59;102916.97;;;-0.68
65316;BMP280;51920;53.952;10.292;2023-04-03T00:43:26;102918.75;;;-0.74
65316;BMP280;51920;53.952;10.292;2023-04-03T00:45:56;102920.63;;;-0.74
65316;BMP280;51920;53.952;10.292;2023-04-03T00:48:29;102925.03;;;-0.80
65316;BMP280;51920;53.952;10.292;2023-04-03T00:50:57;102925.13;;;-0.75
65316;BMP280;51920;53.952;10.292;2023-04-03T00:53:31;102922.97;;;-0.78
65316;BMP280;51920;53.952;10.292;2023-04-03T00:55:59;102925.94;;;-0.74
65316;BMP280;51920;53.952;10.292;2023-04-03T00:58:33;102922.38;;;-0.80
65316;BMP280;51920;53.952;10.292;2023-04-03T01:01:03;102936.59;;;-0.74
65316;BMP280;51920;53.952;10.292;2023-04-03T01:03:31;102932.22;;;-0.81
65316;BMP280;51920;53.952;10.292;2023-04-03T01:06:00;102926.91;;;-0.81
65316;BMP280;51920;53.952;10.292;2023-04-03T01:08:28;102930.34;;;-0.80
65316;BMP280;51920;53.952;10.292;2023-04-03T01:10:55;102937.53;;;-0.81
65316;BMP280;51920;53.952;10.292;2023-04-03T01:13:31;102927.69;;;-0.80
65316;BMP280;51920;53.952;10.292;2023-04-03T01:16:03;102935.19;;;-0.77
65316;BMP280;51920;53.952;10.292;2023-04-03T01:18:30;102929.78;;;-0.82
65316;BMP280;51920;53.952;10.292;2023-04-03T01:26:06;102921.16;;;-0.89
65316;BMP280;51920;53.952;10.292;2023-04-03T01:28:34;102936.75;;;-0.81
65316;BMP280;51920;53.952;10.292;2023-04-03T01:33:39;102934.47;;;-0.89
65316;BMP280;51920;53.952;10.292;2023-04-03T01:36:07;102932.03;;;-0.91
65316;BMP280;51920;53.952;10.292;2023-04-03T01:38:33;102930.66;;;-0.93
65316;BMP280;51920;53.952;10.292;2023-04-03T01:41:00;102932.34;;;-0.87
65316;BMP280;51920;53.952;10.292;2023-04-03T01:43:28;102918.81;;;-1.03
65316;BMP280;51920;53.952;10.292;2023-04-03T01:45:54;102930.66;;;-0.93
65316;BMP280;51920;53.952;10.292;2023-04-03T01:48:21;102921.06;;;-0.95
65316;BMP280;51920;53.952;10.292;2023-04-03T01:50:48;102929.44;;;-1.03
65316;BMP280;51920;53.952;10.292;2023-04-03T01:53:14;102927.50;;;-1.07
65316;BMP280;51920;53.952;10.292;2023-04-03T01:55:41;102923.78;;;-1.06
65316;BMP280;51920;53.952;10.292;2023-04-03T01:58:08;102915.72;;;-1.11
65316;BMP280;51920;53.952;10.292;2023-04-03T02:00:35;102919.84;;;-1.04
65316;BMP280;51920;53.952;10.292;2023-04-03T02:03:02;102933.22;;;-0.99
65316;BMP280;51920;53.952;10.292;2023-04-03T02:05:29;102914.75;;;-1.05
65316;BMP280;51920;53.952;10.292;2023-04-03T02:07:56;102915.59;;;-1.05
65316;BMP280;51920;53.952;10.292;2023-04-03T02:10:22;102937.53;;;-0.98
65316;BMP280;51920;53.952;10.292;2023-04-03T02:12:49;102922.97;;;-1.07
65316;BMP280;51920;53.952;10.292;2023-04-03T02:15:16;102937.81;;;-1.11
65316;BMP280;51920;53.952;10.292;2023-04-03T02:17:43;102926.03;;;-1.15
65316;BMP280;51920;53.952;10.292;2023-04-03T02:20:10;102930.69;;;-1.22
65316;BMP280;51920;53.952;10.292;2023-04-03T02:22:37;102938.88;;;-1.24
65316;BMP280;51920;53.952;10.292;2023-04-03T02:25:04;102934.94;;;-1.21
65316;BMP280;51920;53.952;10.292;2023-04-03T02:27:31;102937.03;;;-1.23
65316;BMP280;51920;53.952;10.292;2023-04-03T02:29:58;102929.38;;;-1.20
65316;BMP280;51920;53.952;10.292;2023-04-03T02:32:24;102927.78;;;-1.21
65316;BMP280;51920;53.952;10.292;2023-04-03T02:34:51;102936.34;;;-1.19
65316;BMP280;51920;53.952;10.292;2023-04-03T02:37:18;102925.84;;;-1.25
65316;BMP280;51920;53.952;10.292;2023-04-03T02:39:45;102934.50;;;-1.30
65316;BMP280;51920;53.952;10.292;2023-04-03T02:42:12;102932.22;;;-1.38
65316;BMP280;51920;53.952;10.292;2023-04-03T02:44:39;102914.75;;;-1.46
65316;BMP280;51920;53.952;10.292;2023-04-03T02:47:05;102930.13;;;-1.36
65316;BMP280;51920;53.952;10.292;2023-04-03T02:49:32;102925.50;;;-1.41
65316;BMP280;51920;53.952;10.292;2023-04-03T02:51:59;102928.38;;;-1.42
65316;BMP280;51920;53.952;10.292;2023-04-03T02:54:25;102933.47;;;-1.41
65316;BMP280;51920;53.952;10.292;2023-04-03T02:56:57;102941.94;;;-1.44
65316;BMP280;51920;53.952;10.292;2023-04-03T02:59:24;102936.03;;;-1.46
65316;BMP280;51920;53.952;10.292;2023-04-03T03:01:51;102932.78;;;-1.48
65316;BMP280;51920;53.952;10.292;2023-04-03T03:04:17;102943.31;;;-1.41
65316;BMP280;51920;53.952;10.292;2023-04-03T03:06:44;102919.41;;;-1.53
65316;BMP280;51920;53.952;10.292;2023-04-03T03:09:11;102933.13;;;-1.44
65316;BMP280;51920;53.952;10.292;2023-04-03T03:11:38;102928.78;;;-1.50
65316;BMP280;51920;53.952;10.292;2023-04-03T03:14:05;102931.31;;;-1.56
65316;BMP280;51920;53.952;10.292;2023-04-03T03:16:32;102921.50;;;-1.55
65316;BMP280;51920;53.952;10.292;2023-04-03T03:18:59;102906.38;;;-1.66
65316;BMP280;51920;53.952;10.292;2023-04-03T03:21:26;102931.91;;;-1.54
65316;BMP280;51920;53.952;10.292;2023-04-03T03:23:52;102933.19;;;-1.56
65316;BMP280;51920;53.952;10.292;2023-04-03T03:26:19;102934.69;;;-1.60
65316;BMP280;51920;53.952;10.292;2023-04-03T03:28:46;102936.31;;;-1.59
65316;BMP280;51920;53.952;10.292;2023-04-03T03:31:12;102933.53;;;-1.64
65316;BMP280;51920;53.952;10.292;2023-04-03T03:33:39;102929.84;;;-1.63
65316;BMP280;51920;53.952;10.292;2023-04-03T03:36:06;102934.69;;;-1.60
65316;BMP280;51920;53.952;10.292;2023-04-03T03:38:35;102928.13;;;-1.69
65316;BMP280;51920;53.952;10.292;2023-04-03T03:41:01;102935.50;;;-1.72
65316;BMP280;51920;53.952;10.292;2023-04-03T03:43:30;102934.94;;;-1.74
65316;BMP280;51920;53.952;10.292;2023-04-03T03:45:56;102934.47;;;-1.71
65316;BMP280;51920;53.952;10.292;2023-04-03T03:48:24;102934.03;;;-1.79
65316;BMP280;51920;53.952;10.292;2023-04-03T03:50:51;102928.94;;;-1.81
65316;BMP280;51920;53.952;10.292;2023-04-03T03:53:21;102942.13;;;-1.74
65316;BMP280;51920;53.952;10.292;2023-04-03T03:55:51;102939.78;;;-1.71
65316;BMP280;51920;53.952;10.292;2023-04-03T03:58:20;102928.72;;;-1.79
65316;BMP280;51920;53.952;10.292;2023-04-03T04:00:47;102933.09;;;-1.85
65316;BMP280;51920;53.952;10.292;2023-04-03T04:03:13;102934.47;;;-1.94
65316;BMP280;51920;53.952;10.292;2023-04-03T04:05:41;102916.44;;;-1.92
65316;BMP280;51920;53.952;10.292;2023-04-03T04:08:08;102929.88;;;-1.99
65316;BMP280;51920;53.952;10.292;2023-04-03T04:10:35;102937.13;;;-1.94
65316;BMP280;51920;53.952;10.292;2023-04-03T04:13:04;102934.94;;;-1.97
65316;BMP280;51920;53.952;10.292;2023-04-03T04:15:31;102941.75;;;-1.90
65316;BMP280;51920;53.952;10.292;2023-04-03T04:17:58;102935.63;;;-1.90
65316;BMP280;51920;53.952;10.292;2023-04-03T04:20:24;102939.31;;;-1.91
65316;BMP280;51920;53.952;10.292;2023-04-03T04:22:52;102928.81;;;-1.98
65316;BMP280;51920;53.952;10.292;2023-04-03T04:25:20;102930.31;;;-2.14
65316;BMP280;51920;53.952;10.292;2023-04-03T04:27:46;102948.22;;;-2.09
65316;BMP280;51920;53.952;10.292;2023-04-03T04:30:14;102943.13;;;-2.11
65316;BMP280;51920;53.952;10.292;2023-04-03T04:32:42;102944.41;;;-2.13
65316;BMP280;51920;53.952;10.292;2023-04-03T04:35:09;102948.09;;;-2.14
65316;BMP280;51920;53.952;10.292;2023-04-03T04:37:39;102958.50;;;-2.13
65316;BMP280;51920;53.952;10.292;2023-04-03T04:40:07;102952.84;;;-2.16
65316;BMP280;51920;53.952;10.292;2023-04-03T04:42:34;102952.03;;;-2.17
65316;BMP280;51920;53.952;10.292;2023-04-03T04:45:01;102963.00;;;-2.13
65316;BMP280;51920;53.952;10.292;2023-04-03T04:47:28;102963.91;;;-2.19
65316;BMP280;51920;53.952;10.292;2023-04-03T04:49:55;102974.88;;;-2.16
65316;BMP280;51920;53.952;10.292;2023-04-03T04:52:22;102970.03;;;-2.19
65316;BMP280;51920;53.952;10.292;2023-04-03T04:54:49;102956.03;;;-2.26
65316;BMP280;51920;53.952;10.292;2023-04-03T04:57:16;102974.19;;;-2.11
65316;BMP280;51920;53.952;10.292;2023-04-03T04:59:43;102971.78;;;-2.13
65316;BMP280;51920;53.952;10.292;2023-04-03T05:02:11;102969.81;;;-2.05
65316;BMP280;51920;53.952;10.292;2023-04-03T05:04:39;102967.84;;;-2.10
65316;BMP280;51920;53.952;10.292;2023-04-03T05:07:11;102972.91;;;-2.09
65316;BMP280;51920;53.952;10.292;2023-04-03T05:09:38;102968.88;;;-2.11
65316;BMP280;51920;53.952;10.292;2023-04-03T05:12:08;102967.97;;;-2.17
65316;BMP280;51920;53.952;10.292;2023-04-03T05:14:40;102965.41;;;-2.23
65316;BMP280;51920;53.952;10.292;2023-04-03T05:17:08;102979.75;;;-2.13
65316;BMP280;51920;53.952;10.292;2023-04-03T05:19:39;102983.19;;;-2.12
65316;BMP280;51920;53.952;10.292;2023-04-03T05:22:07;102988.28;;;-2.11
65316;BMP280;51920;53.952;10.292;2023-04-03T05:24:34;102972.44;;;-2.17
65316;BMP280;51920;53.952;10.292;2023-04-03T05:27:02;102989.91;;;-2.10
65316;BMP280;51920;53.952;10.292;2023-04-03T05:29:31;102982.63;;;-2.14
65316;BMP280;51920;53.952;10.292;2023-04-03T05:31:59;102992.66;;;-2.04
65316;BMP280;51920;53.952;10.292;2023-04-03T05:34:26;102998.81;;;-2.04
65316;BMP280;51920;53.952;10.292;2023-04-03T05:36:54;103000.75;;;-1.99
65316;BMP280;51920;53.952;10.292;2023-04-03T05:39:21;103001.09;;;-1.96
65316;BMP280;51920;53.952;10.292;2023-04-03T05:41:50;102998.56;;;-1.91
65316;BMP280;51920;53.952;10.292;2023-04-03T05:44:17;103003.56;;;-1.82
65316;BMP280;51920;53.952;10.292;2023-04-03T05:46:47;103012.22;;;-1.75
65316;BMP280;51920;53.952;10.292;2023-04-03T05:49:14;103000.66;;;-1.69
65316;BMP280;51920;53.952;10.292;2023-04-03T05:51:41;103008.97;;;-1.54
65316;BMP280;51920;53.952;10.292;2023-04-03T05:54:29;103006.09;;;-1.52
65316;BMP280;51920;53.952;10.292;2023-04-03T05:57:09;103011.84;;;-1.43
65316;BMP280;51920;53.952;10.292;2023-04-03T05:59:36;103007.03;;;-1.35
65316;BMP280;51920;53.952;10.292;2023-04-03T06:02:02;103013.22;;;-1.17
65316;BMP280;51920;53.952;10.292;2023-04-03T06:04:29;103019.59;;;-0.89
65316;BMP280;51920;53.952;10.292;2023-04-03T06:06:57;103020.84;;;-0.51
65316;BMP280;51920;53.952;10.292;2023-04-03T06:09:27;103021.22;;;-0.14
65316;BMP280;51920;53.952;10.292;2023-04-03T06:11:56;103020.53;;;0.30
65316;BMP280;51920;53.952;10.292;2023-04-03T06:14:26;103029.97;;;0.60
65316;BMP280;51920;53.952;10.292;2023-04-03T06:16:53;103028.25;;;0.92
65316;BMP280;51920;53.952;10.292;2023-04-03T06:19:21;103030.75;;;1.26
65316;BMP280;51920;53.952;10.292;2023-04-03T06:21:51;103024.78;;;1.46
65316;BMP280;51920;53.952;10.292;2023-04-03T06:24:18;103032.63;;;1.90
65316;BMP280;51920;53.952;10.292;2023-04-03T06:26:46;103032.59;;;2.33
65316;BMP280;51920;53.952;10.292;2023-04-03T06:29:13;103038.03;;;2.48
65316;BMP280;51920;53.952;10.292;2023-04-03T06:31:40;103039.22;;;2.78
65316;BMP280;51920;53.952;10.292;2023-04-03T06:34:07;103043.31;;;3.06
65316;BMP280;51920;53.952;10.292;2023-04-03T06:36:35;103039.84;;;3.37
65316;BMP280;51920;53.952;10.292;2023-04-03T06:39:02;103040.41;;;3.59
65316;BMP280;51920;53.952;10.292;2023-04-03T06:41:30;103039.06;;;3.62
65316;BMP280;51920;53.952;10.292;2023-04-03T06:43:57;103044.06;;;4.20
65316;BMP280;51920;53.952;10.292;2023-04-03T06:46:26;103048.47;;;4.60
65316;BMP280;51920;53.952;10.292;2023-04-03T06:48:53;103050.75;;;4.82
65316;BMP280;51920;53.952;10.292;2023-04-03T06:51:24;103049.41;;;4.85
65316;BMP280;51920;53.952;10.292;2023-04-03T06:53:53;103056.00;;;5.03
65316;BMP280;51920;53.952;10.292;2023-04-03T06:56:20;103055.84;;;5.23
65316;BMP280;51920;53.952;10.292;2023-04-03T06:58:48;103065.91;;;5.07
65316;BMP280;51920;53.952;10.292;2023-04-03T07:01:17;103068.00;;;5.50
65316;BMP280;51920;53.952;10.292;2023-04-03T07:03:45;103062.84;;;5.83
65316;BMP280;51920;53.952;10.292;2023-04-03T07:06:16;103067.97;;;5.84
65316;BMP280;51920;53.952;10.292;2023-04-03T07:08:44;103068.13;;;6.17
65316;BMP280;51920;53.952;10.292;2023-04-03T07:11:12;103059.44;;;6.01
65316;BMP280;51920;53.952;10.292;2023-04-03T07:13:39;103070.56;;;6.19
65316;BMP280;51920;53.952;10.292;2023-04-03T07:16:07;103069.88;;;6.32
65316;BMP280;51920;53.952;10.292;2023-04-03T07:18:34;103070.16;;;6.06
65316;BMP280;51920;53.952;10.292;2023-04-03T07:21:02;103073.84;;;6.11
65316;BMP280;51920;53.952;10.292;2023-04-03T07:23:29;103078.47;;;6.72
65316;BMP280;51920;53.952;10.292;2023-04-03T07:25:55;103072.81;;;6.93
65316;BMP280;51920;53.952;10.292;2023-04-03T07:28:23;103084.19;;;6.90
65316;BMP280;51920;53.952;10.292;2023-04-03T07:31:00;103089.97;;;6.78
65316;BMP280;51920;53.952;10.292;2023-04-03T07:33:28;103086.06;;;6.70
65316;BMP280;51920;53.952;10.292;2023-04-03T07:35:54;103090.91;;;7.06
65316;BMP280;51920;53.952;10.292;2023-04-03T07:38:22;103080.06;;;7.11
65316;BMP280;51920;53.952;10.292;2023-04-03T07:40:50;103089.91;;;7.35
65316;BMP280;51920;53.952;10.292;2023-04-03T07:43:18;103080.97;;;6.88
65316;BMP280;51920;53.952;10.292;2023-04-03T07:45:45;103080.19;;;7.53
65316;BMP280;51920;53.952;10.292;2023-04-03T07:48:12;103089.03;;;7.72
65316;BMP280;51920;53.952;10.292;2023-04-03T07:50:40;103083.41;;;7.82
65316;BMP280;51920;53.952;10.292;2023-04-03T07:53:07;103090.81;;;7.77
65316;BMP280;51920;53.952;10.292;2023-04-03T07:55:34;103087.41;;;7.71
65316;BMP280;51920;53.952;10.292;2023-04-03T07:58:03;103087.44;;;7.85
65316;BMP280;51920;53.952;10.292;2023-04-03T08:00:31;103081.81;;;7.21
65316;BMP280;51920;53.952;10.292;2023-04-03T08:02:57;103079.41;;;7.52
65316;BMP280;51920;53.952;10.292;2023-04-03T08:05:24;103089.31;;;7.71
65316;BMP280;51920;53.952;10.292;2023-04-03T08:07:51;103083.44;;;7.96
65316;BMP280;51920;53.952;10.292;2023-04-03T08:10:18;103078.03;;;7.96
65316;BMP280;51920;53.952;10.292;2023-04-03T08:12:47;103084.00;;;7.65
65316;BMP280;51920;53.952;10.292;2023-04-03T08:15:14;103086.22;;;7.91
65316;BMP280;51920;53.952;10.292;2023-04-03T08:17:40;103078.63;;;7.93
65316;BMP280;51920;53.952;10.292;2023-04-03T08:20:09;103083.22;;;7.93
65316;BMP280;51920;53.952;10.292;2023-04-03T08:22:36;103075.81;;;7.84
65316;BMP280;51920;53.952;10.292;2023-04-03T08:25:03;103082.38;;;7.64
65316;BMP280;51920;53.952;10.292;2023-04-03T08:27:30;103081.22;;;8.26
65316;BMP280;51920;53.952;10.292;2023-04-03T08:29:57;103079.03;;;8.28
65316;BMP280;51920;53.952;10.292;2023-04-03T08:32:24;103077.19;;;8.51
65316;BMP280;51920;53.952;10.292;2023-04-03T08:34:50;103076.28;;;8.42
65316;BMP280;51920;53.952;10.292;2023-04-03T08:37:17;103076.72;;;8.72
65316;BMP280;51920;53.952;10.292;2023-04-03T08:39:44;103073.44;;;8.83
65316;BMP280;51920;53.952;10.292;2023-04-03T08:45:50;103073.09;;;9.61
65316;BMP280;51920;53.952;10.292;2023-04-03T08:48:06;103079.66;;;10.35
65316;BMP280;51920;53.952;10.292;2023-04-03T08:50:38;103084.75;;;10.28
65316;BMP280;51920;53.952;10.292;2023-04-03T08:53:14;103075.97;;;10.48
65316;BMP280;51920;53.952;10.292;2023-04-03T08:55:49;103066.50;;;9.14
65316;BMP280;51920;53.952;10.292;2023-04-03T08:58:21;103068.91;;;9.95
65316;BMP280;51920;53.952;10.292;2023-04-03T09:01:21;103072.81;;;10.11
65316;BMP280;51920;53.952;10.292;2023-04-03T09:03:49;103077.41;;;10.63
65316;BMP280;51920;53.952;10.292;2023-04-03T09:06:22;103080.28;;;10.41
65316;BMP280;51920;53.952;10.292;2023-04-03T09:08:55;103087.91;;;10.21
65316;BMP280;51920;53.952;10.292;2023-04-03T09:14:13;103086.97;;;10.78
65316;BMP280;51920;53.952;10.292;2023-04-03T09:17:00;103085.03;;;9.60
65316;BMP280;51920;53.952;10.292;2023-04-03T09:19:45;103077.00;;;8.93
65316;BMP280;51920;53.952;10.292;2023-04-03T09:22:27;103074.06;;;8.58
65316;BMP280;51920;53.952;10.292;2023-04-03T09:25:07;103077.47;;;9.80
65316;BMP280;51920;53.952;10.292;2023-04-03T09:27:36;103083.00;;;10.49
65316;BMP280;51920;53.952;10.292;2023-04-03T09:30:04;103084.66;;;11.62
65316;BMP280;51920;53.952;10.292;2023-04-03T09:32:33;103074.00;;;11.78
65316;BMP280;51920;53.952;10.292;2023-04-03T09:37:52;103076.59;;;10.80
65316;BMP280;51920;53.952;10.292;2023-04-03T09:42:53;103074.31;;;8.70
65316;BMP280;51920;53.952;10.292;2023-04-03T09:45:34;103072.25;;;8.17
65316;BMP280;51920;53.952;10.292;2023-04-03T09:53:39;103060.78;;;8.20
65316;BMP280;51920;53.952;10.292;2023-04-03T10:01:37;103062.03;;;7.25
65316;BMP280;51920;53.952;10.292;2023-04-03T10:04:19;103066.19;;;7.37
65316;BMP280;51920;53.952;10.292;2023-04-03T10:06:51;103066.25;;;8.42
65316;BMP280;51920;53.952;10.292;2023-04-03T10:09:24;103059.81;;;8.16
65316;BMP280;51920;53.952;10.292;2023-04-03T10:14:24;103053.91;;;7.12
65316;BMP280;51920;53.952;10.292;2023-04-03T10:17:02;103053.78;;;7.36
65316;BMP280;51920;53.952;10.292;2023-04-03T10:19:40;103045.41;;;7.65
65316;BMP280;51920;53.952;10.292;2023-04-03T10:25:17;103044.75;;;7.13
65316;BMP280;51920;53.952;10.292;2023-04-03T10:27:59;103051.41;;;7.48
65316;BMP280;51920;53.952;10.292;2023-04-03T10:30:46;103049.66;;;7.85
65316;BMP280;51920;53.952;10.292;2023-04-03T10:33:20;103040.78;;;8.48
65316;BMP280;51920;53.952;10.292;2023-04-03T10:55:22;103026.44;;;7.56
65316;BMP280;51920;53.952;10.292;2023-04-03T10:57:53;103024.84;;;7.97
65316;BMP280;51920;53.952;10.292;2023-04-03T11:00:25;103025.44;;;7.52
65316;BMP280;51920;53.952;10.292;2023-04-03T11:03:02;103016.53;;;7.93
65316;BMP280;51920;53.952;10.292;2023-04-03T11:08:27;102997.94;;;8.42
65316;BMP280;51920;53.952;10.292;2023-04-03T11:11:00;103004.66;;;8.30
65316;BMP280;51920;53.952;10.292;2023-04-03T11:13:35;102995.69;;;8.58
65316;BMP280;51920;53.952;10.292;2023-04-03T11:16:03;103010.81;;;8.81
65316;BMP280;51920;53.952;10.292;2023-04-03T11:21:52;102982.44;;;9.01
65316;BMP280;51920;53.952;10.292;2023-04-03T11:24:25;102985.34;;;8.37
65316;BMP280;51920;53.952;10.292;2023-04-03T11:26:54;102980.88;;;8.33
65316;BMP280;51920;53.952;10.292;2023-04-03T11:29:25;102980.81;;;8.46
65316;BMP280;51920;53.952;10.292;2023-04-03T11:32:31;102980.94;;;8.64
65316;BMP280;51920;53.952;10.292;2023-04-03T11:35:01;102978.63;;;8.71
65316;BMP280;51920;53.952;10.292;2023-04-03T11:37:39;102981.06;;;8.36
65316;BMP280;51920;53.952;10.292;2023-04-03T11:42:52;102976.78;;;8.58
65316;BMP280;51920;53.952;10.292;2023-04-03T11:47:56;102964.22;;;8.62
65316;BMP280;51920;53.952;10.292;2023-04-03T11:50:49;102955.81;;;8.63
65316;BMP280;51920;53.952;10.292;2023-04-03T11:55:44;102958.78;;;9.07
65316;BMP280;51920;53.952;10.292;2023-04-03T11:58:26;102957.09;;;8.88
65316;BMP280;51920;53.952;10.292;2023-04-03T12:00:59;102959.81;;;8.43
65316;BMP280;51920;53.952;10.292;2023-04-03T12:16:33;102943.53;;;7.98
65316;BMP280;51920;53.952;10.292;2023-04-03T12:19:03;102948.41;;;7.74
65316;BMP280;51920;53.952;10.292;2023-04-03T12:29:21;102945.72;;;7.46
65316;BMP280;51920;53.952;10.292;2023-04-03T12:32:24;102943.13;;;7.41
65316;BMP280;51920;53.952;10.292;2023-04-03T12:35:01;102936.94;;;7.26
65316;BMP280;51920;53.952;10.292;2023-04-03T12:46:02;102934.53;;;7.25
65316;BMP280;51920;53.952;10.292;2023-04-03T12:48:31;102932.53;;;7.58
65316;BMP280;51920;53.952;10.292;2023-04-03T12:50:59;102931.00;;;7.66
65316;BMP280;51920;53.952;10.292;2023-04-03T12:53:28;102932.34;;;7.68
65316;BMP280;51920;53.952;10.292;2023-04-03T12:58:45;102926.09;;;7.96
65316;BMP280;51920;53.952;10.292;2023-04-03T13:01:17;102924.75;;;7.71
65316;BMP280;51920;53.952;10.292;2023-04-03T13:03:48;102936.09;;;7.81
65316;BMP280;51920;53.952;10.292;2023-04-03T13:06:39;102937.59;;;7.18
65316;BMP280;51920;53.952;10.292;2023-04-03T13:09:19;102933.31;;;7.17
65316;BMP280;51920;53.952;10.292;2023-04-03T13:11:50;102922.03;;;7.01
65316;BMP280;51920;53.952;10.292;2023-04-03T13:14:22;102911.06;;;7.25
65316;BMP280;51920;53.952;10.292;2023-04-03T13:16:57;102932.94;;;7.38
65316;BMP280;51920;53.952;10.292;2023-04-03T13:19:26;102933.25;;;7.50
65316;BMP280;51920;53.952;10.292;2023-04-03T13:22:04;102932.41;;;7.22
65316;BMP280;51920;53.952;10.292;2023-04-03T13:24:35;102932.06;;;6.96
65316;BMP280;51920;53.952;10.292;2023-04-03T13:27:03;102929.69;;;7.08
65316;BMP280;51920;53.952;10.292;2023-04-03T13:29:34;102925.09;;;6.95
65316;BMP280;51920;53.952;10.292;2023-04-03T13:32:03;102895.38;;;6.67
65316;BMP280;51920;53.952;10.292;2023-04-03T13:34:43;102918.91;;;6.94
65316;BMP280;51920;53.952;10.292;2023-04-03T13:37:21;102929.91;;;6.98
65316;BMP280;51920;53.952;10.292;2023-04-03T13:40:10;102922.63;;;7.12
65316;BMP280;51920;53.952;10.292;2023-04-03T13:42:39;102917.16;;;7.17
65316;BMP280;51920;53.952;10.292;2023-04-03T13:45:11;102913.75;;;7.25
65316;BMP280;51920;53.952;10.292;2023-04-03T13:47:44;102917.34;;;7.21
65316;BMP280;51920;53.952;10.292;2023-04-03T13:52:43;102899.97;;;7.41
65316;BMP280;51920;53.952;10.292;2023-04-03T13:55:35;102905.38;;;7.27
65316;BMP280;51920;53.952;10.292;2023-04-03T13:58:16;102904.63;;;7.07
65316;BMP280;51920;53.952;10.292;2023-04-03T14:04:10;102896.78;;;7.11
65316;BMP280;51920;53.952;10.292;2023-04-03T14:06:14;102881.56;;;6.88
65316;BMP280;51920;53.952;10.292;2023-04-03T14:08:43;102891.56;;;6.87
65316;BMP280;51920;53.952;10.292;2023-04-03T14:11:16;102879.38;;;6.90
65316;BMP280;51920;53.952;10.292;2023-04-03T14:13:43;102877.78;;;7.02
65316;BMP280;51920;53.952;10.292;2023-04-03T14:16:14;102880.59;;;7.11
65316;BMP280;51920;53.952;10.292;2023-04-03T14:18:41;102883.59;;;7.23
65316;BMP280;51920;53.952;10.292;2023-04-03T14:21:12;102846.16;;;7.22
65316;BMP280;51920;53.952;10.292;2023-04-03T14:23:39;102893.00;;;7.26
65316;BMP280;51920;53.952;10.292;2023-04-03T14:26:17;102873.63;;;7.10
65316;BMP280;51920;53.952;10.292;2023-04-03T14:28:45;102884.88;;;6.98
65316;BMP280;51920;53.952;10.292;2023-04-03T14:31:13;102866.63;;;7.09
65316;BMP280;51920;53.952;10.292;2023-04-03T14:33:40;102870.59;;;6.84
65316;BMP280;51920;53.952;10.292;2023-04-03T14:36:21;102873.31;;;6.65
65316;BMP280;51920;53.952;10.292;2023-04-03T14:38:51;102870.63;;;6.65
65316;BMP280;51920;53.952;10.292;2023-04-03T14:41:21;102875.78;;;6.47
65316;BMP280;51920;53.952;10.292;2023-04-03T14:43:49;102876.72;;;6.71
65316;BMP280;51920;53.952;10.292;2023-04-03T14:46:22;102868.19;;;6.82
65316;BMP280;51920;53.952;10.292;2023-04-03T14:48:49;102878.75;;;6.79
65316;BMP280;51920;53.952;10.292;2023-04-03T14:51:16;102873.19;;;6.75
65316;BMP280;51920;53.952;10.292;2023-04-03T14:53:44;102874.03;;;6.57
65316;BMP280;51920;53.952;10.292;2023-04-03T14:56:14;102872.16;;;6.71
65316;BMP280;51920;53.952;10.292;2023-04-03T14:58:42;102867.94;;;6.65
65316;BMP280;51920;53.952;10.292;2023-04-03T15:01:10;102855.97;;;6.57
65316;BMP280;51920;53.952;10.292;2023-04-03T15:03:38;102859.78;;;6.70
65316;BMP280;51920;53.952;10.292;2023-04-03T15:06:05;102876.94;;;6.74
65316;BMP280;51920;53.952;10.292;2023-04-03T15:08:31;102870.56;;;6.70
65316;BMP280;51920;53.952;10.292;2023-04-03T15:10:58;102856.00;;;6.71
65316;BMP280;51920;53.952;10.292;2023-04-03T15:13:26;102863.69;;;6.64
65316;BMP280;51920;53.952;10.292;2023-04-03T15:15:53;102865.78;;;6.81
65316;BMP280;51920;53.952;10.292;2023-04-03T15:18:22;102854.00;;;6.63
65316;BMP280;51920;53.952;10.292;2023-04-03T15:20:49;102863.16;;;6.62
65316;BMP280;51920;53.952;10.292;2023-04-03T15:23:17;102874.63;;;6.35
65316;BMP280;51920;53.952;10.292;2023-04-03T15:25:45;102863.13;;;6.10
65316;BMP280;51920;53.952;10.292;2023-04-03T15:28:19;102850.66;;;6.00
65316;BMP280;51920;53.952;10.292;2023-04-03T15:30:47;102860.31;;;6.01
65316;BMP280;51920;53.952;10.292;2023-04-03T15:33:14;102845.09;;;6.11
65316;BMP280;51920;53.952;10.292;2023-04-03T15:35:42;102853.28;;;6.05
65316;BMP280;51920;53.952;10.292;2023-04-03T15:38:09;102861.78;;;6.13
65316;BMP280;51920;53.952;10.292;2023-04-03T15:40:37;102850.63;;;6.19
65316;BMP280;51920;53.952;10.292;2023-04-03T15:43:05;102855.44;;;6.22
65316;BMP280;51920;53.952;10.292;2023-04-03T15:45:33;102855.00;;;6.34
65316;BMP280;51920;53.952;10.292;2023-04-03T15:48:03;102856.91;;;5.96
65316;BMP280;51920;53.952;10.292;2023-04-03T15:50:31;102857.69;;;5.96
65316;BMP280;51920;53.952;10.292;2023-04-03T15:52:58;102868.03;;;5.89